Startbyn, Sweden

4:33 AM CEST on September 03, 2015 (GMT +0200)
Kallax Air Base | | Change Station
CLOSE
Current Station
Airport
Location: Lulea-Kallax,
Elevation: 112 ft
Nearby Weather Stations

Elev 112 ft 65.54 °N, 22.12 °E | Updated 13 minutes ago

Scattered Clouds
Scattered Clouds
39 °F
Feels Like 36 °F
N
5
Wind Variable Wind from NNW

Today
High -- | Low -- °F
--% Chance of Precip.
Yesterday
High -- | Low -- °F
Precip. -- in
5:07 AM 7:46 PM
Waning Gibbous, 75% visible
Pressure 30.04 in
Visibility 6.2 miles
Clouds Scattered Clouds 3600 ft
Windchill 36 °F
Dew Point 39 °F
Humidity 100%
Rainfall 0.00 in
Snow Depth Not available.
UV 0 out of 12
Pollen Not available.
Air Quality Not available.
Flu Activity Not available.
METAR ESPA 030220Z AUTO 34004KT 9999 SCT036/// 04/04 Q1017
Pressure 30.04 in
Visibility 6.2 miles
Clouds Scattered Clouds 3600 ft
Windchill 36 °F
Dew Point 39 °F
Humidity 100%
Rainfall 0.00 in
Snow Depth Not available.
UV 0 out of 12
Pollen Not available.
Air Quality Not available.
Flu Activity Not available.
METAR ESPA 030220Z AUTO 34004KT 9999 SCT036/// 04/04 Q1017

10-Day Weather Forecast

×

Almanac

Astronomy

Sep. 03, 2015 Rise Set
Actual Time
Civil Twilight
Nautical Twilight
Astronomical Twilight
Moon
Length of Visible Light
Length of Day
Tomorrow will be .
, % of the Moon is Illuminated

Today's Extremes

Country Highs Country Lows

Community

WunderPhotos

Upload Photos

1,851,879 photos uploaded!

WunderBlogs® & News

Nearby

Air Quality

  Air Quality AQ Index Pollutant
Not available.

Snow Depth

Station Depth Elevation

Earthquake Activity

City Distance Mag. Time & Date
Minimum magnitude displayed is 2.5.

Coastal Water Temperatures

Place Temperature

Stations

Nearby Weather Stations

Station Location Temp. Windchill Dew Point Humidity Wind Precip. Elev Updated Type